Correa, Argentina
Current Conditions -  °F | °C
As of 2:00 AM on Saturday 25 Oct 2014 (Local Time) from SAAR Reporting Station
Clear Clear  
Wind Chill: 73°   Ceiling: Unl
Heat Index: 73°   Visibility: 6mi
Dew Point: 64°   Wind: 0mph
Humidity: 73%   Direction: NA
Pressure: 29.88"   Gusts: NA
Location:  32.85°S, 61.25°W
Report Text: SAAR 250500Z 00000KT CAVOK 23/18 Q1012
Loading
Personal Weather Stations






























Interactive Weather Map
Tropical Storm Tracking
New forecast layout! Learn more

10-Day Weather Forecast

Advertisements
Track Severe Weather on mobile